Time;durP1;ratioP1;P1;durP2;ratioP2;P2;SDS_P1;SDS_P2;PMS_P1;PMS_P2;Temp;Humidity;BMP_temperature;BMP_pressure;BME280_temperature;BME280_humidity;BME280_pressure;Samples;Min_cycle;Max_cycle;Signal;HPM_P1;HPM_P2
2021/06/12 00:00:56;;;;;;;9.07;5.55;;;24.40;61.60;;;;;;5008502;28;20049;-78
2021/06/12 00:03:40;;;;;;;6.72;5.30;;;24.30;61.60;;;;;;5013389;28;20048;-79
2021/06/12 00:06:24;;;;;;;8.65;5.40;;;24.30;61.70;;;;;;5011861;28;20041;-78
2021/06/12 00:09:08;;;;;;;10.32;6.20;;;24.30;61.90;;;;;;5014851;28;20084;-78
2021/06/12 00:11:53;;;;;;;12.13;5.33;;;24.30;62.10;;;;;;5013649;28;20044;-79
2021/06/12 00:14:37;;;;;;;;;;;24.30;62.30;;;;;;5013702;28;20125;-79
2021/06/12 00:17:21;;;;;;;14.07;6.03;;;24.30;61.60;;;;;;5029951;28;19920;-78
2021/06/12 00:20:08;;;;;;;9.55;6.07;;;24.20;62.30;;;;;;5034927;28;20061;-78
2021/06/12 00:22:53;;;;;;;13.98;5.90;;;24.20;62.60;;;;;;5022708;28;20084;-78
2021/06/12 00:25:40;;;;;;;10.70;5.60;;;24.10;62.40;;;;;;5013072;28;20080;-77
2021/06/12 00:28:24;;;;;;;7.30;5.47;;;24.10;62.70;;;;;;5013912;28;20048;-79
2021/06/12 00:31:08;;;;;;;7.38;5.15;;;24.10;62.80;;;;;;5012925;28;20544;-80
2021/06/12 00:33:52;;;;;;;12.02;5.45;;;24.10;62.80;;;;;;5013763;28;20045;-79
2021/06/12 00:36:36;;;;;;;8.15;5.55;;;24.00;62.70;;;;;;5012676;28;20426;-79
2021/06/12 00:39:20;;;;;;;5.93;4.75;;;24.00;62.80;;;;;;5013973;28;20036;-79
2021/06/12 00:42:05;;;;;;;9.15;5.32;;;24.00;63.00;;;;;;5013969;28;20040;-79
2021/06/12 00:44:49;;;;;;;9.70;5.15;;;24.00;63.10;;;;;;5012288;28;20113;-79
2021/06/12 00:47:34;;;;;;;8.25;5.35;;;24.00;63.00;;;;;;5012483;28;20041;-79
2021/06/12 00:50:19;;;;;;;7.32;5.22;;;24.00;63.10;;;;;;5012338;28;20037;-79
2021/06/12 00:53:03;;;;;;;8.98;5.63;;;24.00;63.20;;;;;;5013751;28;20041;-79
2021/06/12 00:55:47;;;;;;;7.27;5.03;;;24.00;63.10;;;;;;5000065;28;20041;-79
2021/06/12 00:58:33;;;;;;;6.68;4.90;;;24.00;63.20;;;;;;5005986;28;20080;-78
2021/06/12 01:01:20;;;;;;;9.57;5.20;;;24.00;63.30;;;;;;4998697;28;20072;-79
2021/06/12 01:04:05;;;;;;;7.97;5.43;;;24.00;63.40;;;;;;4993716;28;20521;-79
2021/06/12 01:06:50;;;;;;;7.38;5.05;;;24.00;63.40;;;;;;4993749;28;20036;-79
2021/06/12 01:09:34;;;;;;;6.03;4.97;;;23.90;63.40;;;;;;4993534;28;20449;-79
2021/06/12 01:12:34;;;;;;;8.32;4.95;;;24.00;63.60;;;;;;5009028;28;20072;-79
2021/06/12 01:15:19;;;;;;;6.03;4.80;;;23.90;63.70;;;;;;5011332;28;20087;-76
2021/06/12 01:18:12;;;;;;;6.22;4.70;;;23.90;63.50;;;;;;5013311;28;20386;-76
2021/06/12 01:21:14;;;;;;;6.05;5.45;;;23.90;63.80;;;;;;5010365;28;20053;-76
2021/06/12 01:24:30;;;;;;;7.45;5.38;;;23.90;63.80;;;;;;5012801;28;20418;-76
2021/06/12 01:27:36;;;;;;;7.65;5.03;;;23.90;63.70;;;;;;5000426;28;20504;-77
2021/06/12 01:30:23;;;;;;;6.97;5.28;;;23.90;63.90;;;;;;5012203;28;20560;-76
2021/06/12 01:33:12;;;;;;;7.63;4.72;;;23.90;63.80;;;;;;5013201;28;20111;-78
2021/06/12 01:36:04;;;;;;;8.15;5.53;;;23.90;63.80;;;;;;5010081;28;20505;-77
2021/06/12 01:38:50;;;;;;;12.60;5.78;;;23.90;63.90;;;;;;5012962;28;20095;-78
2021/06/12 01:41:36;;;;;;;12.02;5.68;;;23.80;63.80;;;;;;5010399;28;20080;-78
2021/06/12 01:44:20;;;;;;;11.55;6.10;;;23.90;64.00;;;;;;5011355;28;20036;-77
2021/06/12 01:47:07;;;;;;;8.23;5.63;;;23.80;64.10;;;;;;5011338;28;20048;-77
2021/06/12 01:49:34;;;;;;;8.65;5.60;;;23.90;64.20;;;;;;4999063;28;20410;-78
2021/06/12 01:52:20;;;;;;;8.13;4.93;;;23.90;64.30;;;;;;5011640;28;20104;-78
2021/06/12 01:55:05;;;;;;;10.15;5.28;;;23.90;64.40;;;;;;5011935;28;20071;-78
2021/06/12 01:57:50;;;;;;;9.13;5.57;;;23.90;64.30;;;;;;5007496;28;20497;-78
2021/06/12 02:00:36;;;;;;;12.10;4.97;;;23.90;64.40;;;;;;4992836;28;20566;-77
2021/06/12 02:03:22;;;;;;;7.85;5.50;;;23.90;64.60;;;;;;5004957;28;20055;-78
2021/06/12 02:06:10;;;;;;;9.32;4.65;;;23.90;64.80;;;;;;5012402;28;20053;-78
2021/06/12 02:08:56;;;;;;;6.80;4.78;;;23.90;64.90;;;;;;5011090;28;20460;-70
2021/06/12 02:11:41;;;;;;;6.93;4.88;;;23.90;65.10;;;;;;5010836;28;20029;-70
2021/06/12 02:14:27;;;;;;;6.97;4.88;;;23.90;65.10;;;;;;5010922;28;20528;-70
2021/06/12 02:17:12;;;;;;;5.20;4.70;;;23.80;65.40;;;;;;5012155;28;20398;-70
2021/06/12 02:19:58;;;;;;;6.95;4.43;;;23.80;65.60;;;;;;5010369;28;20403;-70
2021/06/12 02:22:45;;;;;;;6.63;4.55;;;23.70;65.80;;;;;;5008259;28;20044;-69
2021/06/12 02:25:30;;;;;;;7.57;4.50;;;23.80;66.00;;;;;;4992310;28;20037;-70
2021/06/12 02:28:16;;;;;;;6.13;4.97;;;23.80;66.10;;;;;;4995216;28;20044;-70
2021/06/12 02:31:08;;;;;;;8.70;5.22;;;23.80;66.10;;;;;;5011939;28;20099;-70
2021/06/12 02:33:53;;;;;;;9.57;5.43;;;23.70;66.10;;;;;;5010366;28;20113;-68
2021/06/12 02:36:36;;;;;;;6.82;4.45;;;23.80;66.30;;;;;;5011610;28;20037;-77
2021/06/12 02:39:21;;;;;;;6.28;4.55;;;23.80;66.40;;;;;;5010758;28;20402;-72
2021/06/12 02:42:06;;;;;;;8.02;4.88;;;23.80;66.50;;;;;;5012321;28;20033;-71
2021/06/12 02:44:50;;;;;;;5.28;4.40;;;23.70;66.50;;;;;;5010442;28;20395;-72
2021/06/12 02:47:53;;;;;;;7.60;4.47;;;23.70;66.70;;;;;;5011351;28;20306;-72
2021/06/12 02:50:38;;;;;;;6.63;4.97;;;23.70;66.80;;;;;;5011624;28;20513;-72
2021/06/12 02:53:26;;;;;;;5.78;4.50;;;23.70;66.80;;;;;;5007139;28;20064;-72
2021/06/12 02:56:14;;;;;;;6.15;5.00;;;23.70;66.90;;;;;;5010430;28;20121;-71
2021/06/12 02:59:05;;;;;;;9.13;5.07;;;23.70;66.90;;;;;;5008486;28;20033;-73
2021/06/12 03:01:52;;;;;;;6.13;5.00;;;23.70;67.00;;;;;;5012043;28;20501;-72
2021/06/12 03:04:37;;;;;;;7.70;4.68;;;23.70;66.90;;;;;;5010324;28;20100;-72
2021/06/12 03:07:23;;;;;;;8.90;5.15;;;23.70;67.00;;;;;;5040864;28;20092;-73
2021/06/12 03:10:09;;;;;;;6.30;4.40;;;23.70;67.10;;;;;;5011830;28;20561;-72
2021/06/12 03:12:54;;;;;;;5.93;4.60;;;23.70;67.30;;;;;;5014502;28;20038;-72
2021/06/12 03:15:43;;;;;;;5.88;4.30;;;23.70;67.80;;;;;;5028881;28;20056;-72
2021/06/12 03:18:28;;;;;;;5.22;4.07;;;23.60;68.00;;;;;;5030687;28;20033;-72
2021/06/12 03:21:14;;;;;;;6.55;4.20;;;23.50;67.90;;;;;;5031494;28;20528;-73
2021/06/12 03:24:00;;;;;;;6.43;4.20;;;23.50;68.20;;;;;;5030674;28;20060;-71
2021/06/12 03:26:45;;;;;;;6.97;4.68;;;23.50;68.20;;;;;;5028579;28;20041;-72
2021/06/12 03:29:32;;;;;;;5.57;3.90;;;23.50;68.80;;;;;;5028424;28;20307;-73
2021/06/12 03:32:16;;;;;;;7.53;4.32;;;23.50;68.90;;;;;;5016215;28;20037;-73
2021/06/12 03:35:01;;;;;;;4.10;3.70;;;23.40;69.10;;;;;;5014074;28;20120;-73
2021/06/12 03:37:47;;;;;;;5.25;4.43;;;23.40;69.30;;;;;;5014276;28;20049;-74
2021/06/12 03:40:31;;;;;;;6.53;3.83;;;23.30;69.30;;;;;;5010540;28;20053;-72
2021/06/12 03:43:15;;;;;;;4.72;3.83;;;23.30;69.60;;;;;;5010746;28;20501;-73
2021/06/12 03:46:01;;;;;;;5.03;4.43;;;23.20;70.10;;;;;;4995658;28;20494;-74
2021/06/12 03:48:48;;;;;;;4.18;3.53;;;23.10;70.50;;;;;;5002406;28;20040;-73
2021/06/12 03:51:32;;;;;;;6.85;3.78;;;23.00;71.10;;;;;;5004849;28;20040;-72
2021/06/12 03:54:16;;;;;;;5.05;4.32;;;22.90;71.50;;;;;;5012632;28;20084;-73
2021/06/12 03:57:01;;;;;;;5.75;3.53;;;22.90;72.80;;;;;;5014783;28;20415;-73
2021/06/12 03:59:45;;;;;;;;;;;22.80;72.40;;;;;;5013452;28;20041;-73
2021/06/12 04:02:29;;;;;;;6.35;4.05;;;22.70;73.00;;;;;;5014682;28;19932;-72
2021/06/12 04:05:13;;;;;;;9.05;3.88;;;22.70;73.00;;;;;;5014512;28;20048;-73
2021/06/12 04:07:57;;;;;;;5.87;4.27;;;22.70;73.40;;;;;;5012826;28;20790;-72
2021/06/12 04:10:41;;;;;;;5.22;4.00;;;22.70;73.30;;;;;;5014114;28;20403;-72
2021/06/12 04:13:26;;;;;;;4.72;3.58;;;22.70;73.70;;;;;;5008380;28;20402;-71
2021/06/12 04:16:11;;;;;;;5.05;3.80;;;22.80;73.80;;;;;;4994902;28;20032;-74
2021/06/12 04:18:55;;;;;;;5.57;3.80;;;22.80;74.20;;;;;;5006141;28;20033;-75
2021/06/12 04:21:39;;;;;;;5.15;3.92;;;22.80;74.10;;;;;;5013994;28;20121;-76
2021/06/12 04:24:23;;;;;;;4.78;3.85;;;22.90;74.10;;;;;;5012730;28;20509;-75
2021/06/12 04:27:07;;;;;;;4.45;3.63;;;22.80;74.40;;;;;;5013543;28;20041;-72
2021/06/12 04:29:51;;;;;;;5.20;4.30;;;22.90;74.50;;;;;;5012501;28;20041;-74
2021/06/12 04:32:35;;;;;;;5.60;3.78;;;22.80;74.80;;;;;;5010581;28;20308;-70
2021/06/12 04:35:19;;;;;;;7.05;3.72;;;22.90;74.80;;;;;;4999244;28;20045;-71
2021/06/12 04:38:03;;;;;;;5.35;3.70;;;22.90;74.80;;;;;;5012193;28;20036;-71
2021/06/12 04:40:48;;;;;;;4.60;3.80;;;22.90;74.90;;;;;;5000258;28;20065;-70
2021/06/12 04:43:32;;;;;;;4.43;3.78;;;23.00;75.10;;;;;;4993697;28;20033;-72
2021/06/12 04:46:17;;;;;;;5.60;3.85;;;23.00;74.90;;;;;;4993752;28;20100;-71
2021/06/12 04:49:01;;;;;;;4.40;3.90;;;23.10;75.00;;;;;;4996939;28;20077;-71
2021/06/12 04:51:45;;;;;;;6.40;4.30;;;23.20;75.10;;;;;;5001909;28;20441;-71
2021/06/12 04:54:29;;;;;;;3.85;3.40;;;23.20;74.80;;;;;;5007470;28;20560;-72
2021/06/12 04:57:13;;;;;;;4.40;3.33;;;23.30;74.70;;;;;;5011101;28;20077;-72
2021/06/12 04:59:57;;;;;;;5.72;3.63;;;23.30;74.90;;;;;;5011581;28;20041;-74
2021/06/12 05:02:41;;;;;;;5.38;3.78;;;23.40;75.10;;;;;;5009296;28;20041;-73
2021/06/12 05:05:25;;;;;;;;;;;23.40;75.00;;;;;;4994277;28;20069;-72
2021/06/12 05:08:10;;;;;;;3.63;3.22;;;23.50;74.30;;;;;;4996294;28;19924;-72
2021/06/12 05:10:53;;;;;;;4.30;2.83;;;23.50;74.50;;;;;;5012890;28;20053;-75
2021/06/12 05:13:37;;;;;;;6.13;4.00;;;23.50;74.50;;;;;;5011562;28;20045;-73
2021/06/12 05:16:22;;;;;;;4.28;3.88;;;23.50;74.40;;;;;;5010979;28;20041;-72
2021/06/12 05:19:06;;;;;;;4.60;3.20;;;23.60;74.20;;;;;;5012286;28;20084;-73
2021/06/12 05:21:50;;;;;;;4.80;3.65;;;23.60;74.10;;;;;;5003724;28;20038;-73
2021/06/12 05:24:35;;;;;;;5.40;3.67;;;23.60;74.20;;;;;;5007347;28;20140;-72
2021/06/12 05:27:19;;;;;;;4.22;3.22;;;23.60;74.80;;;;;;5012736;28;20685;-73
2021/06/12 05:30:04;;;;;;;3.50;2.85;;;23.60;74.70;;;;;;5012821;28;20095;-73
2021/06/12 05:32:49;;;;;;;7.53;3.47;;;23.70;75.30;;;;;;5010786;28;20407;-73
2021/06/12 05:35:33;;;;;;;4.82;3.15;;;23.80;74.70;;;;;;4991799;28;20049;-72
2021/06/12 05:38:18;;;;;;;5.88;3.63;;;23.90;74.40;;;;;;4996963;28;20048;-73
2021/06/12 05:41:02;;;;;;;8.43;3.90;;;24.00;74.10;;;;;;5012503;28;20080;-73
2021/06/12 05:43:47;;;;;;;4.85;3.70;;;24.00;73.70;;;;;;5009686;28;20040;-72
2021/06/12 05:46:31;;;;;;;5.68;2.97;;;24.00;73.70;;;;;;4995334;28;20180;-73
2021/06/12 05:49:15;;;;;;;5.60;3.38;;;24.00;73.70;;;;;;5003506;28;20045;-73
2021/06/12 05:51:40;;;;;;;4.20;3.05;;;24.10;74.10;;;;;;4993207;28;20026;-72
2021/06/12 05:54:24;;;;;;;5.32;3.33;;;24.20;73.70;;;;;;4993844;28;20080;-73
2021/06/12 05:57:08;;;;;;;5.50;3.38;;;24.30;73.20;;;;;;4992783;28;20041;-73
2021/06/12 05:59:52;;;;;;;4.45;2.83;;;24.30;72.50;;;;;;5009224;28;20044;-73
2021/06/12 06:02:36;;;;;;;4.75;3.05;;;24.30;72.30;;;;;;5012127;28;20093;-73
2021/06/12 06:05:21;;;;;;;6.22;3.88;;;24.30;72.50;;;;;;5011007;28;20096;-72
2021/06/12 06:08:05;;;;;;;4.75;3.00;;;24.30;71.90;;;;;;4994329;28;20169;-72
2021/06/12 06:10:49;;;;;;;4.82;3.58;;;24.30;71.90;;;;;;5011973;28;20184;-72
2021/06/12 06:13:40;;;;;;;4.60;3.20;;;24.20;71.80;;;;;;5009117;28;20049;-73
2021/06/12 06:16:24;;;;;;;4.22;3.35;;;24.10;72.00;;;;;;5019835;28;20132;-72
2021/06/12 06:19:09;;;;;;;5.47;3.70;;;24.10;72.20;;;;;;5012433;28;20509;-72
2021/06/12 06:21:53;;;;;;;3.95;3.05;;;24.00;72.40;;;;;;5011059;28;20049;-71
2021/06/12 06:24:38;;;;;;;4.53;3.45;;;24.00;72.30;;;;;;4996361;28;20084;-72
2021/06/12 06:27:22;;;;;;;6.68;3.53;;;24.00;72.20;;;;;;4990854;28;20184;-71
2021/06/12 06:30:07;;;;;;;4.60;3.42;;;24.00;72.30;;;;;;5010929;28;20049;-71
2021/06/12 06:32:51;;;;;;;5.32;3.63;;;24.00;72.40;;;;;;5009336;28;20421;-71
2021/06/12 06:35:36;;;;;;;6.55;3.95;;;23.90;72.50;;;;;;5007629;28;20112;-72
2021/06/12 06:38:20;;;;;;;7.85;3.75;;;24.00;72.60;;;;;;5010126;28;20040;-70
2021/06/12 06:41:05;;;;;;;5.20;3.60;;;24.00;72.80;;;;;;4998556;28;20088;-71
2021/06/12 06:43:30;;;;;;;4.47;3.30;;;24.10;72.60;;;;;;5010387;28;20026;-71
2021/06/12 06:45:56;;;;;;;3.90;3.45;;;24.10;72.80;;;;;;5006522;28;20545;-71
2021/06/12 06:48:21;;;;;;;6.00;3.80;;;24.20;72.70;;;;;;5006388;28;20099;-71
2021/06/12 06:50:47;;;;;;;5.63;3.65;;;24.20;72.40;;;;;;5011987;28;20065;-71
2021/06/12 06:53:13;;;;;;;4.78;3.50;;;24.20;72.50;;;;;;5009018;28;20022;-70
2021/06/12 06:55:39;;;;;;;6.60;3.25;;;24.30;72.70;;;;;;5002732;28;20077;-70
2021/06/12 06:58:05;;;;;;;5.15;3.70;;;24.30;72.40;;;;;;5003126;28;20050;-71
2021/06/12 07:00:31;;;;;;;4.70;3.85;;;24.30;72.50;;;;;;5011390;28;20062;-71
2021/06/12 07:02:56;;;;;;;5.07;3.80;;;24.30;72.30;;;;;;5009768;28;20056;-71
2021/06/12 07:05:22;;;;;;;4.63;3.58;;;24.40;72.40;;;;;;5006483;28;20084;-70
2021/06/12 07:07:48;;;;;;;4.85;3.67;;;24.40;72.20;;;;;;5007417;28;20065;-71
2021/06/12 07:10:14;;;;;;;5.75;3.60;;;24.50;72.40;;;;;;5011456;28;20430;-71
2021/06/12 07:12:39;;;;;;;4.53;3.40;;;24.60;72.30;;;;;;5009702;28;20034;-71
2021/06/12 07:15:07;;;;;;;5.05;4.07;;;24.60;72.00;;;;;;4993543;28;20022;-70
2021/06/12 07:17:32;;;;;;;7.60;4.40;;;24.60;72.10;;;;;;5010722;28;20030;-70
2021/06/12 07:19:58;;;;;;;6.97;4.25;;;24.70;72.10;;;;;;5010471;28;20018;-70
2021/06/12 07:22:24;;;;;;;5.25;4.00;;;24.70;71.90;;;;;;5010503;28;20049;-69
2021/06/12 07:24:50;;;;;;;5.68;3.60;;;24.70;72.00;;;;;;5010222;28;20545;-73
2021/06/12 07:27:15;;;;;;;6.03;3.58;;;24.70;72.10;;;;;;5010429;28;20037;-71
2021/06/12 07:29:41;;;;;;;6.15;4.20;;;24.70;71.70;;;;;;5010674;28;20026;-71
2021/06/12 07:32:06;;;;;;;4.65;3.78;;;24.70;71.80;;;;;;5010711;28;20478;-73
2021/06/12 07:34:32;;;;;;;6.22;4.10;;;24.70;71.70;;;;;;5001640;28;20034;-72
2021/06/12 07:36:58;;;;;;;4.80;3.83;;;24.70;71.70;;;;;;4996399;28;20116;-72
2021/06/12 07:39:27;;;;;;;6.85;4.70;;;24.70;71.80;;;;;;5005911;28;20037;-80
2021/06/12 07:41:52;;;;;;;8.55;4.45;;;24.60;72.10;;;;;;5012105;28;20160;-80
2021/06/12 07:44:18;;;;;;;8.23;4.80;;;24.60;72.80;;;;;;5006754;28;20114;-80
2021/06/12 07:46:43;;;;;;;9.75;5.45;;;24.50;72.90;;;;;;5003146;28;20027;-80
2021/06/12 07:49:11;;;;;;;7.65;5.53;;;24.50;72.60;;;;;;4992048;28;20502;-80
2021/06/12 07:51:37;;;;;;;9.73;6.25;;;24.50;72.50;;;;;;5006743;28;20041;-79
2021/06/12 07:54:03;;;;;;;10.07;5.70;;;24.30;73.00;;;;;;5011351;28;20030;-78
2021/06/12 07:56:28;;;;;;;7.53;5.57;;;24.20;73.10;;;;;;5008779;28;20109;-80
2021/06/12 07:58:54;;;;;;;11.35;6.10;;;24.20;73.30;;;;;;5013173;28;20030;-79
2021/06/12 08:01:19;;;;;;;8.95;5.80;;;24.20;73.30;;;;;;5015429;28;20068;-79
2021/06/12 08:03:45;;;;;;;8.25;5.80;;;24.20;73.70;;;;;;5011618;28;20042;-77
2021/06/12 08:06:10;;;;;;;8.85;5.57;;;24.30;73.60;;;;;;5014434;28;20021;-78
2021/06/12 08:08:36;;;;;;;6.13;5.28;;;24.30;73.80;;;;;;5013205;28;20046;-77
2021/06/12 08:11:01;;;;;;;8.07;6.00;;;24.30;73.70;;;;;;5014354;28;20161;-78
2021/06/12 08:13:27;;;;;;;8.25;6.47;;;24.30;73.50;;;;;;5013542;28;20030;-78
2021/06/12 08:16:11;;;;;;;11.85;6.85;;;24.30;73.70;;;;;;5012619;28;20087;-79
2021/06/12 08:18:55;;;;;;;11.15;6.30;;;24.30;73.70;;;;;;5013566;28;20037;-80
2021/06/12 08:21:39;;;;;;;7.78;5.97;;;24.40;73.60;;;;;;5012249;28;20040;-80
2021/06/12 08:24:23;;;;;;;7.20;6.28;;;24.30;73.40;;;;;;5013801;28;20428;-79
2021/06/12 08:27:07;;;;;;;8.88;6.53;;;24.30;73.20;;;;;;5014072;28;20057;-79
2021/06/12 08:29:52;;;;;;;10.23;6.25;;;24.30;73.40;;;;;;5013548;28;20057;-79
2021/06/12 08:32:37;;;;;;;7.30;6.53;;;24.30;73.40;;;;;;5014400;28;20103;-79
2021/06/12 08:35:22;;;;;;;11.35;7.75;;;24.40;73.60;;;;;;5012216;28;20052;-79
2021/06/12 08:38:07;;;;;;;8.05;6.45;;;24.40;73.20;;;;;;5012747;28;20084;-78
2021/06/12 08:40:51;;;;;;;9.52;6.82;;;24.40;73.40;;;;;;4994464;28;20045;-79
2021/06/12 08:43:37;;;;;;;8.13;6.30;;;24.50;73.50;;;;;;5000570;28;20045;-79
2021/06/12 08:46:24;;;;;;;7.88;5.75;;;24.50;73.60;;;;;;5010560;28;20033;-79
2021/06/12 08:49:08;;;;;;;8.80;6.43;;;24.60;73.80;;;;;;5008691;28;20057;-78
2021/06/12 08:51:52;;;;;;;12.63;5.97;;;24.70;73.20;;;;;;5012406;28;20056;-79
2021/06/12 08:54:41;;;;;;;7.90;6.10;;;24.70;72.80;;;;;;5012855;28;20045;-78
2021/06/12 08:57:24;;;;;;;8.45;5.95;;;24.70;72.70;;;;;;5013732;28;20036;-79
2021/06/12 09:00:09;;;;;;;7.57;5.78;;;24.80;72.90;;;;;;5012884;28;20076;-78
2021/06/12 09:03:03;;;;;;;7.85;5.28;;;24.90;72.50;;;;;;5012110;28;20065;-77
2021/06/12 09:05:50;;;;;;;8.05;6.28;;;24.90;72.30;;;;;;5009394;28;20040;-78
2021/06/12 09:08:39;;;;;;;9.38;5.60;;;24.90;71.80;;;;;;5010990;28;20041;-78
2021/06/12 09:11:25;;;;;;;9.57;5.88;;;25.00;71.50;;;;;;5011136;28;20033;-78
2021/06/12 09:14:09;;;;;;;11.10;6.70;;;24.90;72.00;;;;;;5013646;28;20108;-78
2021/06/12 09:16:53;;;;;;;8.57;6.63;;;24.90;72.00;;;;;;5012077;28;20045;-79
2021/06/12 09:19:41;;;;;;;9.55;6.53;;;24.80;71.60;;;;;;5004607;28;20092;-78
2021/06/12 09:22:27;;;;;;;9.65;6.45;;;24.70;71.80;;;;;;4996357;28;20045;-73
2021/06/12 09:25:31;;;;;;;11.05;7.05;;;24.60;72.10;;;;;;5011802;28;20103;-73
2021/06/12 09:28:16;;;;;;;8.68;6.60;;;24.50;72.40;;;;;;5007347;28;20053;-73
2021/06/12 09:31:16;;;;;;;;;;;24.40;72.90;;;;;;5008189;28;20126;-74
2021/06/12 09:34:10;;;;;;;10.60;7.63;;;24.30;72.90;;;;;;5010740;28;19923;-73
2021/06/12 09:36:53;;;;;;;8.57;6.75;;;24.20;74.40;;;;;;5009923;28;20184;-78
2021/06/12 09:39:38;;;;;;;13.32;7.47;;;24.20;75.70;;;;;;5008272;28;20068;-75
2021/06/12 09:42:46;;;;;;;8.50;6.60;;;24.00;76.70;;;;;;5003518;28;20096;-63
2021/06/12 09:45:32;;;;;;;11.07;7.65;;;24.00;78.40;;;;;;4998830;28;20041;-62
2021/06/12 09:48:22;;;;;;;13.95;8.63;;;23.90;79.80;;;;;;5009981;28;20044;-63
2021/06/12 09:51:14;;;;;;;11.75;6.63;;;24.00;81.00;;;;;;5011391;28;20048;-63
2021/06/12 09:54:01;;;;;;;11.73;8.45;;;23.90;80.90;;;;;;4996625;28;20134;-63
2021/06/12 09:56:57;;;;;;;12.10;6.53;;;24.00;82.20;;;;;;5007785;28;20117;-63
2021/06/12 09:59:48;;;;;;;9.02;8.00;;;24.00;82.10;;;;;;5011141;28;20045;-63
2021/06/12 10:02:36;;;;;;;11.30;8.45;;;24.00;82.20;;;;;;4992774;28;20104;-63
2021/06/12 10:05:22;;;;;;;8.98;6.95;;;24.10;82.80;;;;;;4999683;28;20517;-63
2021/06/12 10:08:06;;;;;;;12.05;10.27;;;24.10;82.50;;;;;;5009731;28;20190;-64
2021/06/12 10:10:51;;;;;;;13.50;9.93;;;24.10;83.50;;;;;;5011493;28;20060;-63
2021/06/12 10:13:35;;;;;;;;;;;24.00;83.20;;;;;;5005008;28;20033;-63
2021/06/12 10:16:01;;;;;;;12.23;8.38;;;24.00;83.30;;;;;;5004553;28;19910;-63
2021/06/12 10:18:47;;;;;;;11.27;7.70;;;24.00;83.60;;;;;;5010601;28;20075;-62
2021/06/12 10:21:31;;;;;;;11.43;8.88;;;24.10;83.40;;;;;;5007413;28;20086;-63
2021/06/12 10:24:16;;;;;;;11.68;7.93;;;24.10;83.60;;;;;;5010216;28;20052;-63
2021/06/12 10:27:01;;;;;;;9.93;8.48;;;24.10;83.50;;;;;;5011876;28;20040;-63
2021/06/12 10:29:46;;;;;;;8.30;7.40;;;24.10;83.80;;;;;;5009908;28;20495;-63
2021/06/12 10:32:30;;;;;;;8.23;7.32;;;24.10;83.50;;;;;;4997494;28;20037;-63
2021/06/12 10:34:57;;;;;;;12.70;9.18;;;24.20;83.50;;;;;;5010387;28;20398;-62
2021/06/12 10:37:22;;;;;;;10.52;7.75;;;24.20;83.70;;;;;;5016081;28;20076;-63
2021/06/12 10:40:03;;;;;;;9.80;7.68;;;24.40;83.00;;;;;;5006605;28;20026;-63
2021/06/12 10:42:28;;;;;;;9.80;8.25;;;24.50;82.50;;;;;;5011133;28;20088;-63
2021/06/12 10:44:55;;;;;;;8.93;7.88;;;24.60;82.80;;;;;;4994634;28;20069;-63
2021/06/12 10:47:52;;;;;;;8.38;6.43;;;24.80;82.40;;;;;;4995673;28;20541;-63
2021/06/12 10:50:24;;;;;;;6.85;5.00;;;25.00;80.50;;;;;;5000557;28;20125;-63
2021/06/12 10:52:51;;;;;;;6.88;6.18;;;25.10;80.40;;;;;;5002183;28;20030;-63
2021/06/12 10:55:38;;;;;;;7.78;6.28;;;25.20;79.90;;;;;;4992419;28;20061;-63
2021/06/12 10:58:30;;;;;;;6.70;6.00;;;25.30;78.60;;;;;;4999502;28;20022;-64
2021/06/12 11:01:16;;;;;;;10.43;5.60;;;25.30;77.40;;;;;;5011578;28;20036;-63
2021/06/12 11:03:53;;;;;;;6.68;5.03;;;25.40;77.10;;;;;;5009862;28;20107;-64
2021/06/12 11:06:39;;;;;;;8.88;6.22;;;25.50;77.20;;;;;;5006921;28;20153;-64
2021/06/12 11:09:32;;;;;;;36.38;7.88;;;25.50;76.50;;;;;;4998304;28;20049;-64
2021/06/12 11:12:14;;;;;;;11.18;5.82;;;25.60;76.20;;;;;;4990768;28;20085;-63
2021/06/12 11:14:40;;;;;;;14.82;5.25;;;25.70;75.20;;;;;;5004872;28;20030;-62
2021/06/12 11:17:05;;;;;;;8.45;5.68;;;25.70;74.20;;;;;;5011223;28;20497;-64
2021/06/12 11:19:42;;;;;;;6.30;5.03;;;25.70;74.00;;;;;;5008073;28;20367;-63
2021/06/12 11:22:33;;;;;;;5.07;4.57;;;25.60;72.90;;;;;;5010705;28;20108;-63
2021/06/12 11:25:01;;;;;;;5.88;4.15;;;25.50;73.00;;;;;;5009299;28;20034;-64
2021/06/12 11:27:42;;;;;;;5.97;4.22;;;25.50;73.10;;;;;;5010781;28;20065;-64
2021/06/12 11:30:20;;;;;;;6.95;4.47;;;25.50;72.80;;;;;;5010558;28;20026;-64
2021/06/12 11:33:08;;;;;;;5.50;4.75;;;25.50;71.70;;;;;;5025724;28;20088;-64
2021/06/12 11:36:01;;;;;;;5.30;4.30;;;25.50;72.10;;;;;;5010036;28;20640;-64
2021/06/12 11:38:48;;;;;;;6.72;4.10;;;25.40;71.50;;;;;;5010068;28;20048;-64
2021/06/12 11:41:33;;;;;;;4.75;4.10;;;25.30;70.90;;;;;;5012045;28;20441;-64
2021/06/12 11:44:17;;;;;;;5.18;3.92;;;25.30;70.30;;;;;;5013199;28;20116;-64
2021/06/12 11:47:01;;;;;;;3.90;3.38;;;25.30;69.70;;;;;;5004775;28;20106;-64
2021/06/12 11:49:50;;;;;;;4.85;3.50;;;25.10;69.40;;;;;;5007504;28;20504;-63
2021/06/12 11:52:39;;;;;;;5.25;3.80;;;25.00;69.50;;;;;;5011214;28;20041;-65
2021/06/12 11:55:25;;;;;;;5.35;4.13;;;25.20;70.30;;;;;;4995254;28;20121;-65
2021/06/12 11:58:11;;;;;;;6.10;4.03;;;25.40;69.80;;;;;;5013542;28;20029;-64
2021/06/12 12:00:54;;;;;;;;;;;25.50;70.30;;;;;;5002473;28;20092;-65
2021/06/12 12:03:39;;;;;;;6.22;4.15;;;25.50;68.50;;;;;;5006477;28;20539;-64
2021/06/12 12:06:23;;;;;;;5.03;4.05;;;25.40;68.50;;;;;;5004805;28;20099;-64
2021/06/12 12:09:07;;;;;;;4.32;3.55;;;25.20;68.20;;;;;;5005820;28;20609;-64
2021/06/12 12:11:52;;;;;;;5.32;4.00;;;25.10;68.40;;;;;;4996652;28;20044;-65
2021/06/12 12:14:39;;;;;;;4.90;3.95;;;24.90;68.10;;;;;;5008659;28;20128;-65
2021/06/12 12:17:25;;;;;;;5.32;3.53;;;25.00;68.60;;;;;;5010649;28;20165;-64
2021/06/12 12:20:10;;;;;;;5.70;3.33;;;24.90;68.70;;;;;;4995673;28;20402;-64
2021/06/12 12:22:55;;;;;;;;;;;24.90;68.50;;;;;;5012527;28;20068;-64
2021/06/12 12:25:38;;;;;;;5.13;3.28;;;24.80;68.90;;;;;;5007372;28;20273;-64
2021/06/12 12:28:24;;;;;;;8.55;3.97;;;24.50;68.50;;;;;;4999468;28;20526;-64
2021/06/12 12:31:08;;;;;;;11.25;3.28;;;24.00;70.50;;;;;;5013112;28;20505;-64
2021/06/12 12:33:54;;;;;;;4.78;3.45;;;23.40;71.00;;;;;;5002355;28;20129;-64
2021/06/12 12:36:47;;;;;;;5.63;3.67;;;23.10;72.50;;;;;;4999323;28;20088;-64
2021/06/12 12:39:49;;;;;;;5.40;3.67;;;22.90;73.80;;;;;;4994165;28;20038;-63
2021/06/12 12:42:34;;;;;;;7.88;3.70;;;22.70;75.40;;;;;;4996392;28;20037;-63
2021/06/12 12:45:21;;;;;;;8.85;3.53;;;22.50;76.10;;;;;;5012679;28;20084;-63
2021/06/12 12:48:06;;;;;;;4.63;3.33;;;22.50;76.90;;;;;;5010950;28;20041;-64
2021/06/12 12:50:50;;;;;;;5.22;3.60;;;22.40;77.00;;;;;;5013667;28;20037;-63
2021/06/12 12:53:41;;;;;;;5.85;3.83;;;22.40;77.50;;;;;;5007372;28;20213;-64
2021/06/12 12:56:51;;;;;;;5.10;3.72;;;22.40;77.90;;;;;;4993954;28;20032;-64
2021/06/12 12:59:44;;;;;;;4.93;3.80;;;22.30;77.80;;;;;;4993684;28;20076;-63
2021/06/12 13:02:38;;;;;;;6.53;3.60;;;22.30;77.60;;;;;;4993756;28;20130;-64
2021/06/12 13:05:23;;;;;;;4.15;3.42;;;22.20;78.00;;;;;;4999636;28;20056;-63
2021/06/12 13:08:12;;;;;;;4.47;3.30;;;22.20;78.70;;;;;;5010287;28;20057;-63
2021/06/12 13:11:05;;;;;;;6.82;3.75;;;22.20;79.00;;;;;;5013404;28;20049;-63
2021/06/12 13:13:49;;;;;;;6.97;4.57;;;22.40;79.30;;;;;;5020812;28;20100;-63
2021/06/12 13:16:34;;;;;;;7.78;3.90;;;22.50;78.60;;;;;;5011186;28;20444;-63
2021/06/12 13:19:18;;;;;;;7.68;4.68;;;22.60;77.90;;;;;;5007872;28;20048;-63
2021/06/12 13:22:03;;;;;;;7.47;3.72;;;22.60;78.20;;;;;;5013270;28;20032;-62
2021/06/12 13:25:09;;;;;;;7.75;4.05;;;22.70;78.90;;;;;;4994706;28;20505;-62
2021/06/12 13:28:02;;;;;;;6.60;3.70;;;22.70;78.50;;;;;;4995517;28;20129;-63
2021/06/12 13:30:47;;;;;;;7.75;3.58;;;22.70;78.10;;;;;;5012243;28;20033;-63
2021/06/12 13:33:14;;;;;;;6.68;3.80;;;22.70;77.90;;;;;;4998418;28;20478;-62
2021/06/12 13:36:01;;;;;;;6.00;3.50;;;22.80;78.00;;;;;;5013081;28;20045;-64
2021/06/12 13:38:48;;;;;;;5.78;3.65;;;22.70;77.80;;;;;;5010421;28;20032;-63
2021/06/12 13:41:32;;;;;;;5.43;3.40;;;22.70;77.90;;;;;;5011726;28;20044;-63
2021/06/12 13:44:16;;;;;;;4.72;3.40;;;22.80;77.70;;;;;;5003374;28;20037;-63
2021/06/12 13:47:00;;;;;;;5.32;3.53;;;22.90;77.60;;;;;;5005367;28;20514;-64
2021/06/12 13:49:44;;;;;;;5.60;4.38;;;23.00;77.50;;;;;;5010799;28;20521;-63
2021/06/12 13:52:29;;;;;;;5.38;4.20;;;23.10;78.10;;;;;;5010369;28;20128;-63
2021/06/12 13:55:14;;;;;;;5.50;4.28;;;23.30;77.40;;;;;;5009771;28;20079;-63
2021/06/12 13:57:59;;;;;;;5.80;3.50;;;23.40;76.70;;;;;;5006836;28;20475;-63
2021/06/12 14:00:43;;;;;;;6.20;4.35;;;23.50;76.80;;;;;;5008160;28;20097;-63
2021/06/12 14:03:27;;;;;;;5.72;4.50;;;23.60;75.70;;;;;;5001359;28;20080;-64
2021/06/12 14:06:12;;;;;;;6.00;4.00;;;23.60;75.90;;;;;;5004892;28;20517;-64
2021/06/12 14:08:56;;;;;;;5.35;3.97;;;23.80;75.70;;;;;;5004704;28;20044;-64